美保飛行場の過去48時間の天気

美保飛行場 (Miho)

現在時刻: 9/16 12:08 JST (9/16 03:08 UTC) 以下の時間は現地時間です。

過去48時間のMETAR気象情報
時間 風向 風速(m/s) 視程 気温(℃) 湿度(%) 気圧(hPa) 天気現象
16 11:00 5 10km以上 26 65 1007
16 10:00 北北西 5 10km以上 26 70 1007
16 09:00 6 10km以上 25 74 1007
16 08:00 5 10km以上 25 74 1007
16 07:00 3 10km以上 24 83 1007
16 06:00 3 10km以上 24 83 1007
16 05:00 3 10km以上 24 83 1007
16 04:00 3 10km以上 24 83 1007
16 03:00 西北西 1 10km以上 23 94 1007 弱いしゅう雨
16 02:00 北北西 3 10km以上 24 89 1008 弱いしゅう雨
16 01:00 6 10km以上 25 83 1008 弱いしゅう雨
16 00:00 3 10km以上 25 83 1008
15 23:00 北北東 4 10km以上 26 84 1008
15 22:00 北北東 4 10km以上 26 79 1008
15 21:00 北北東 5 10km以上 26 84 1008
15 20:00 北北東 5 10km以上 26 79 1008
15 19:00 北北東 4 10km以上 26 84 1008
15 18:00 北北東 4 10km以上 27 79 1008
15 17:00 北北東 5 10km以上 27 79 1007
15 16:00 北北東 6 10km以上 27 84 1007
15 15:00 北東 5 10km以上 28 74 1008
15 14:00 北東 5 10km以上 28 74 1008
15 13:00 北東 5 10km以上 28 74 1008
15 12:00 北東 5 10km以上 27 79 1009
15 11:00 北東 3 10km以上 28 70 1009
15 10:00 2 10km以上 27 74 1010
15 09:00 西南西 2 10km以上 26 84 1010
15 08:00 南南西 2 10km以上 26 84 1010
15 07:00 南南東 1 10km以上 25 89 1009
15 06:00 南南西 2 10km以上 24 94 1009
15 05:00 不定 1 10km以上 25 89 1009
15 04:00 不定 1 10km以上 24 94 1009
15 03:00 南南東 2 10km以上 25 94 1009
15 02:00 2 10km以上 25 94 1010
15 01:00 不定 1 10km以上 25 83 1010
15 00:00 不定 1 10km以上 26 79 1010
14 23:00 2 10km以上 25 89 1010
14 22:00 東南東 2 10km以上 26 84 1010
14 21:00 3 10km以上 27 79 1010
14 20:00 北北東 2 10km以上 27 74 1010
14 19:00 北東 3 10km以上 27 79 1010
14 18:00 東北東 3 10km以上 28 70 1009
14 17:00 北東 3 10km以上 29 62 1009
14 16:00 北北東 3 10km以上 29 62 1009
14 15:00 北北西 3 10km以上 30 59 1009
14 14:00 北東 4 10km以上 30 66 1009
14 13:00 北東 3 10km以上 30 59 1010
RJOH 160200Z 01010KT 310V050 9999 FEW015 SCT025 26/19 Q1007
RJOH 160100Z 34010KT 9999 FEW015 SCT025 26/20 Q1007
RJOH 160000Z 36011KT 320V020 9999 FEW015 SCT025 25/20 Q1007
RJOH 152300Z 35009KT 320V020 9999 FEW015 25/20 Q1007
RJOH 152200Z 36006KT 9999 FEW010 SCT250 24/21 Q1007
RJOH 152100Z 35005KT 9999 FEW007 SCT030 BKN250 24/21 Q1007
RJOH 152000Z 36006KT 9999 FEW010 BKN030 BKN/// 24/21 Q1007
RJOH 151900Z 36005KT 330V030 9999 FEW010 SCT015 BKN030 24/21 Q1007
RJOH 151800Z 29002KT 9999 -SHRA FEW007 SCT015 BKN030 23/22 Q1007
RJOH 151700Z 34005KT 9999 -SHRA FEW010 SCT015 BKN030 24/22 Q1008
RJOH 151600Z 36011KT 9999 -SHRA FEW010 SCT015 BKN025 25/22 Q1008
RJOH 151500Z 35006KT 330V030 9999 FEW010 SCT015 BKN025 25/22 Q1008
RJOH 151400Z 03007KT 9999 FEW010 SCT025 26/23 Q1008
RJOH 151300Z 03008KT 9999 FEW010 SCT025 26/22 Q1008
RJOH 151200Z 03009KT 9999 FEW025 26/23 Q1008
RJOH 151100Z 03009KT 9999 FEW015 SCT025 26/22 Q1008
RJOH 151000Z 03007KT 9999 FEW015 26/23 Q1008
RJOH 150900Z 03008KT 9999 FEW015 SCT025 27/23 Q1008
RJOH 150800Z 03009KT 9999 FEW015 27/23 Q1007
RJOH 150700Z 03011KT 9999 FEW015 SCT025 27/24 Q1007
RJOH 150600Z 04009KT 9999 FEW015 BKN025 28/23 Q1008
RJOH 150500Z 04010KT 9999 FEW015 SCT025 28/23 Q1008
RJOH 150400Z 04009KT 360V070 9999 FEW015 BKN025 28/23 Q1008
RJOH 150300Z 05009KT 9999 FEW015 SCT025 27/23 Q1009
RJOH 150200Z 05006KT 020V090 9999 FEW015 SCT070 BKN250 28/22 Q1009
RJOH 150100Z 08004KT 040V110 9999 FEW015 SCT060 27/22 Q1010
RJOH 150000Z 24003KT 200V280 9999 FEW010 SCT060 26/23 Q1010
RJOH 142300Z 20003KT 150V260 9999 FEW010 BKN040 BKN060 26/23 Q1010
RJOH 142200Z 15002KT 9999 FEW010 BKN040 BKN060 25/23 Q1009
RJOH 142100Z 20003KT 9999 FEW010 BKN040 24/23 Q1009
RJOH 142000Z VRB01KT 9999 FEW030 BKN035 25/23 Q1009
RJOH 141900Z VRB02KT 9999 FEW035 SCT040 BKN080 24/23 Q1009
RJOH 141800Z 16003KT 9999 FEW040 BKN060 BKN080 25/24 Q1009
RJOH 141700Z 19004KT 9999 FEW030 SCT040 BKN060 25/24 Q1010
RJOH 141600Z VRB02KT 9999 FEW030 BKN045 BKN060 25/22 Q1010
RJOH 141500Z VRB02KT 9999 FEW030 BKN045 26/22 Q1010
RJOH 141400Z 19004KT 9999 FEW030 BKN040 BKN/// 25/23 Q1010
RJOH 141300Z 11003KT 9999 FEW030 26/23 Q1010
RJOH 141200Z 08005KT 050V110 9999 FEW030 27/23 Q1010
RJOH 141100Z 03004KT 9999 FEW050 27/22 Q1010
RJOH 141000Z 04005KT 9999 FEW040 27/23 Q1010
RJOH 140900Z 06006KT 9999 FEW040 BKN070 28/22 Q1009
RJOH 140800Z 05006KT 9999 FEW040 BKN070 29/21 Q1009
RJOH 140700Z 03006KT 340V070 9999 FEW030 SCT070 29/21 Q1009
RJOH 140600Z 33006KT 270V020 9999 FEW040 SCT070 30/21 Q1009
RJOH 140500Z 04007KT 9999 FEW040 BKN070 30/23 Q1009
RJOH 140400Z 05005KT 020V140 9999 FEW030 SCT070 BKN250 30/21 Q1010